首页
METAR-TAF:

METAR-TAF

机场 :

诺福克海军基地

諾福克, 弗吉尼亚州, 美国

纬度: 36-56-01N, 经度: 076-17-45W, 海拔: 4米

当前天气观测

该预报发布于28分钟前的23:59 UTC
风速3节,风向
温度 23°C
湿度 94%
气压 1020 hPa
能見度: 16.1公里
少量云层高于1100英尺
阴天层高于2800英尺
小雨

METAR: KNGU 232359Z 18003KT 10SM -RA FEW011 OVC028 23/22 A3013 RMK AO2 RAB48 SLP204 P0000 60047 T02280217 10278 20228 51013

时间: 20:27 (00:27 UTC)

预报

预报有效从23日的 23点(UTC)到 24日的 23点(UTC)
风速7节,风向东转东北
能见度10公里或以上
散云层高于3000英尺
多云层高于5000英尺
阴天层高于8000英尺
附近有阵雨
短暂存在
从 24日的 00点(UTC)到 24日的 06点(UTC)
能見度: 8000
散云层高于1000英尺
多云层高于3000英尺
阴天层高于5000英尺
阵雨
成为
从 24日的 12点(UTC)到 24日的 14点(UTC)
风速7节,风向东转东北
能見度: 9000
散云层高于2000英尺
多云层高于3000英尺
轻雾
成为
从 24日的 18点(UTC)到 24日的 20点(UTC)
风速13节,风向
能见度10公里或以上
少量云层高于2000英尺
散云层高于3000英尺
多云层高于9000英尺

TAF: KNGU 2323/2423 07007KT 9999 VCSH SCT030 BKN050 OVC080 QNH3004INS TEMPO 2400/2406 8000 SHRA SCT010 BKN030 OVC050 BECMG 2412/2414 07007KT 9000 BR SCT020 BKN030 QNH3000INS BECMG 2418/2420 09013KT 9999 NSW FEW020 SCT030 BKN090 QNH2998INS T20/2409Z T27/2419Z FN00172

超过4000个机场的气象观测和天气预报(METAR&TAF报告)。

可查询的气象台以黄色和红色小点在地图上表示。

将鼠标移到小点上方,可查看气象台名称。

然后点击查看天气观测和预报。

如需切换地图:点击带黑十字的绿色按钮放大地图;点击带横线的绿色按钮缩小地图;或者点击绿色箭头查看邻近地区的地图。


METAR-TAF: